createdAt,value
2023-01-23T00:02:43.914Z,-0.70
2023-01-23T00:05:30.487Z,-0.70
2023-01-23T00:08:17.008Z,-0.70
2023-01-23T00:11:03.562Z,-0.70
2023-01-23T00:13:50.100Z,-0.80
2023-01-23T00:16:36.641Z,-0.70
2023-01-23T00:19:23.186Z,-0.70
2023-01-23T00:22:09.721Z,-0.70
2023-01-23T00:24:56.283Z,-0.80
2023-01-23T00:27:42.801Z,-0.80
2023-01-23T00:30:29.338Z,-0.70
2023-01-23T00:33:16.879Z,-0.70
2023-01-23T00:36:03.401Z,-0.70
2023-01-23T00:38:49.936Z,-0.70
2023-01-23T00:41:36.486Z,-0.70
2023-01-23T00:44:23.017Z,-0.70
2023-01-23T00:47:09.572Z,-0.70
2023-01-23T00:49:56.082Z,-0.70
2023-01-23T00:52:42.670Z,-0.70
2023-01-23T00:55:29.187Z,-0.70
2023-01-23T00:58:15.748Z,-0.70
2023-01-23T01:01:02.267Z,-0.70
2023-01-23T01:03:48.812Z,-0.70
2023-01-23T01:06:35.384Z,-0.70
2023-01-23T01:09:22.922Z,-0.70
2023-01-23T01:12:09.438Z,-0.80
2023-01-23T01:14:55.953Z,-0.70
2023-01-23T01:17:42.498Z,-0.80
2023-01-23T01:20:29.002Z,-0.80
2023-01-23T01:23:15.534Z,-0.70
2023-01-23T01:26:02.046Z,-0.70
2023-01-23T01:28:48.623Z,-0.70
2023-01-23T01:31:35.239Z,-0.70
2023-01-23T01:34:23.619Z,-0.70
2023-01-23T01:37:10.269Z,-0.70
2023-01-23T01:39:56.823Z,-0.70
2023-01-23T01:42:43.304Z,-0.70
2023-01-23T01:45:29.829Z,-0.80
2023-01-23T01:48:16.402Z,-0.80
2023-01-23T01:51:02.960Z,-0.80
2023-01-23T01:53:49.517Z,-0.80
2023-01-23T01:56:36.031Z,-0.70
2023-01-23T01:59:22.563Z,-0.70
2023-01-23T02:02:09.170Z,-0.70
2023-01-23T02:04:55.737Z,-0.60
2023-01-23T02:07:42.250Z,-0.70
2023-01-23T02:10:28.826Z,-0.60
2023-01-23T02:13:15.347Z,-0.60
2023-01-23T02:16:01.898Z,-0.60
2023-01-23T02:18:48.420Z,-0.60
2023-01-23T02:21:34.986Z,-0.60
2023-01-23T02:24:21.505Z,-0.60
2023-01-23T02:27:08.062Z,-0.70
2023-01-23T02:29:54.576Z,-0.70
2023-01-23T02:32:41.120Z,-0.70
2023-01-23T02:35:27.636Z,-0.70
2023-01-23T02:38:14.120Z,-0.70
2023-01-23T02:41:00.648Z,-0.70
2023-01-23T02:43:47.168Z,-0.70
2023-01-23T02:46:33.681Z,-0.60
2023-01-23T02:49:20.225Z,-0.60
2023-01-23T02:52:06.787Z,-0.60
2023-01-23T02:54:53.337Z,-0.70
2023-01-23T02:57:39.891Z,-0.70
2023-01-23T03:00:26.404Z,-0.80
2023-01-23T03:03:12.953Z,-0.70
2023-01-23T03:05:59.480Z,-0.80
2023-01-23T03:08:46.001Z,-0.80
2023-01-23T03:11:32.546Z,-0.70
2023-01-23T03:14:19.064Z,-0.70
2023-01-23T03:17:05.585Z,-0.70
2023-01-23T03:19:53.076Z,-0.70
2023-01-23T03:22:40.592Z,-0.80
2023-01-23T03:25:27.108Z,-0.80
2023-01-23T03:28:13.660Z,-0.80
2023-01-23T03:31:00.210Z,-0.90
2023-01-23T03:33:48.286Z,-0.90
2023-01-23T03:36:34.796Z,-0.90
2023-01-23T03:39:21.337Z,-0.80
2023-01-23T03:42:07.850Z,-0.80
2023-01-23T03:44:54.344Z,-0.80
2023-01-23T03:47:40.901Z,-0.80
2023-01-23T03:50:27.382Z,-0.90
2023-01-23T03:53:13.940Z,-1.00
2023-01-23T03:56:00.478Z,-1.00
2023-01-23T03:58:46.985Z,-1.00
2023-01-23T04:01:33.520Z,-1.00
2023-01-23T04:04:20.051Z,-1.00
2023-01-23T04:07:06.570Z,-1.00
2023-01-23T04:09:53.140Z,-1.00
2023-01-23T04:12:39.670Z,-1.00
2023-01-23T04:15:26.209Z,-1.00
2023-01-23T04:18:12.695Z,-0.90
2023-01-23T04:20:59.222Z,-0.90
2023-01-23T04:23:45.754Z,-0.90
2023-01-23T04:26:32.273Z,-1.00
2023-01-23T04:29:18.834Z,-0.90
2023-01-23T04:32:05.631Z,-0.90
2023-01-23T04:34:52.236Z,-0.90
2023-01-23T04:37:38.746Z,-0.80
2023-01-23T04:40:25.301Z,-0.80
2023-01-23T04:43:11.830Z,-0.70
2023-01-23T04:45:58.420Z,-0.70
2023-01-23T04:48:46.384Z,-0.80
2023-01-23T04:51:33.910Z,-0.80
2023-01-23T04:54:20.432Z,-0.80
2023-01-23T04:57:07.010Z,-0.70
2023-01-23T04:59:53.543Z,-0.70
2023-01-23T05:02:40.107Z,-0.70
2023-01-23T05:05:26.651Z,-0.60
2023-01-23T05:08:13.203Z,-0.60
2023-01-23T05:10:59.739Z,-0.60
2023-01-23T05:13:46.275Z,-0.50
2023-01-23T05:16:32.789Z,-0.50
2023-01-23T05:19:19.317Z,-0.60
2023-01-23T05:22:05.850Z,-0.60
2023-01-23T05:24:52.409Z,-0.60
2023-01-23T05:27:38.927Z,-0.60
2023-01-23T05:30:25.456Z,-0.60
2023-01-23T05:33:12.059Z,-0.60
2023-01-23T05:35:58.582Z,-0.60
2023-01-23T05:38:45.134Z,-0.60
2023-01-23T05:41:31.649Z,-0.60
2023-01-23T05:44:18.194Z,-0.50
2023-01-23T05:47:04.713Z,-0.60
2023-01-23T05:49:51.221Z,-0.50
2023-01-23T05:52:37.745Z,-0.50
2023-01-23T05:55:24.298Z,-0.50
2023-01-23T05:58:10.828Z,-0.50
2023-01-23T06:00:57.349Z,-0.50
2023-01-23T06:03:43.971Z,-0.50
2023-01-23T06:06:30.522Z,-0.50
2023-01-23T06:09:17.054Z,-0.60
2023-01-23T06:12:03.617Z,-0.70
2023-01-23T06:14:50.132Z,-0.70
2023-01-23T06:17:36.739Z,-0.70
2023-01-23T06:20:23.269Z,-0.70
2023-01-23T06:23:09.803Z,-0.70
2023-01-23T06:25:56.366Z,-0.60
2023-01-23T06:28:43.892Z,-0.60
2023-01-23T06:31:30.517Z,-0.60
2023-01-23T06:34:18.160Z,-0.60
2023-01-23T06:37:04.697Z,-0.60
2023-01-23T06:39:51.209Z,-0.60
2023-01-23T06:42:37.758Z,-0.60
2023-01-23T06:45:24.267Z,-0.60
2023-01-23T06:48:11.807Z,-0.50
2023-01-23T06:50:58.343Z,-0.60
2023-01-23T06:53:44.926Z,-0.50
2023-01-23T06:56:31.464Z,-0.50
2023-01-23T06:59:18.007Z,-0.50
2023-01-23T07:02:04.549Z,-0.50
2023-01-23T07:04:51.098Z,-0.60
2023-01-23T07:07:37.776Z,-0.70
2023-01-23T07:10:24.345Z,-0.80
2023-01-23T07:13:10.850Z,-0.70
2023-01-23T07:15:57.425Z,-0.60
2023-01-23T07:18:43.976Z,-0.60
2023-01-23T07:21:30.530Z,-0.50
2023-01-23T07:24:17.064Z,-0.60
2023-01-23T07:27:03.577Z,-0.60
2023-01-23T07:29:50.097Z,-0.60
2023-01-23T07:32:36.631Z,-0.50
2023-01-23T07:35:23.201Z,-0.50
2023-01-23T07:38:09.720Z,-0.50
2023-01-23T07:40:56.267Z,-0.40
2023-01-23T07:43:43.819Z,-0.40
2023-01-23T07:46:30.472Z,-0.40
2023-01-23T07:49:16.978Z,-0.40
2023-01-23T07:52:03.552Z,-0.40
2023-01-23T07:54:50.080Z,-0.40
2023-01-23T07:57:36.575Z,-0.40
2023-01-23T08:00:24.922Z,-0.40
2023-01-23T08:03:12.150Z,-0.30
2023-01-23T08:05:59.709Z,-0.30
2023-01-23T08:08:46.254Z,-0.30
2023-01-23T08:11:34.374Z,-0.30
2023-01-23T08:14:21.033Z,-0.30
2023-01-23T08:17:07.583Z,-0.40
2023-01-23T08:19:54.102Z,-0.30
2023-01-23T08:22:40.649Z,-0.20
2023-01-23T08:25:27.178Z,-0.20
2023-01-23T08:28:13.725Z,-0.10
2023-01-23T08:31:00.266Z,-0.10
2023-01-23T08:33:46.898Z,-0.10
2023-01-23T08:36:33.386Z,-0.10
2023-01-23T08:39:19.937Z,0.00
2023-01-23T08:42:06.474Z,0.00
2023-01-23T08:44:53.028Z,0.10
2023-01-23T08:47:39.521Z,0.10
2023-01-23T08:50:26.041Z,0.30
2023-01-23T08:53:12.720Z,0.20
2023-01-23T08:55:59.274Z,0.20
2023-01-23T08:58:45.826Z,0.30
2023-01-23T09:01:32.395Z,0.30
2023-01-23T09:04:18.929Z,0.30
2023-01-23T09:07:05.491Z,0.40
2023-01-23T09:09:52.035Z,0.50
2023-01-23T09:12:38.583Z,0.50
2023-01-23T09:15:25.198Z,0.30
2023-01-23T09:18:11.725Z,0.30
2023-01-23T09:20:58.256Z,0.30
2023-01-23T09:23:44.819Z,0.40
2023-01-23T09:26:31.356Z,0.40
2023-01-23T09:29:17.908Z,0.50
2023-01-23T09:32:04.547Z,0.60
2023-01-23T09:34:51.124Z,0.70
2023-01-23T09:37:37.650Z,0.60
2023-01-23T09:40:24.190Z,0.50
2023-01-23T09:43:10.735Z,0.50
2023-01-23T09:45:57.304Z,0.40
2023-01-23T09:48:43.904Z,0.40
2023-01-23T09:51:30.416Z,0.20
2023-01-23T09:54:16.962Z,0.10
2023-01-23T09:57:03.492Z,0.10
2023-01-23T09:59:59.239Z,0.20
2023-01-23T10:02:47.091Z,0.20
2023-01-23T10:05:33.663Z,0.20
2023-01-23T10:08:20.152Z,0.20
2023-01-23T10:11:06.709Z,0.20
2023-01-23T10:13:53.239Z,0.10
2023-01-23T10:16:49.902Z,0.20
2023-01-23T10:19:37.167Z,0.40
2023-01-23T10:22:23.694Z,0.50
2023-01-23T10:25:10.224Z,0.70
2023-01-23T10:27:56.774Z,0.80
2023-01-23T10:30:44.371Z,0.90
2023-01-23T10:33:30.930Z,1.00
2023-01-23T10:36:23.542Z,1.00
2023-01-23T10:39:10.837Z,1.10
2023-01-23T10:42:02.276Z,1.20
2023-01-23T10:44:49.437Z,1.10
2023-01-23T10:47:37.073Z,1.00
2023-01-23T10:50:25.217Z,0.90
2023-01-23T10:53:11.835Z,0.80
2023-01-23T10:55:58.524Z,0.80
2023-01-23T10:58:45.250Z,0.80
2023-01-23T11:01:31.867Z,0.80
2023-01-23T11:04:18.420Z,0.70
2023-01-23T11:07:04.928Z,0.50
2023-01-23T11:09:51.660Z,0.40
2023-01-23T11:12:38.222Z,0.40
2023-01-23T11:15:24.749Z,0.40
2023-01-23T11:18:12.561Z,0.30
2023-01-23T11:20:59.052Z,0.20
2023-01-23T11:23:45.754Z,0.20
2023-01-23T11:26:32.305Z,0.20
2023-01-23T11:29:18.853Z,0.20
2023-01-23T11:32:05.500Z,0.10
2023-01-23T11:34:52.232Z,0.20
2023-01-23T11:37:38.804Z,0.10
2023-01-23T11:40:25.594Z,0.20
2023-01-23T11:43:13.123Z,0.10
2023-01-23T11:45:59.647Z,0.10
2023-01-23T11:48:46.242Z,0.10
2023-01-23T11:51:32.895Z,0.10
2023-01-23T11:54:19.485Z,0.10
2023-01-23T11:57:06.034Z,0.00
2023-01-23T11:59:52.554Z,0.10
2023-01-23T12:02:39.352Z,0.00
2023-01-23T12:05:25.925Z,0.00
2023-01-23T12:08:12.445Z,0.10
2023-01-23T12:10:58.990Z,0.10
2023-01-23T12:13:45.540Z,0.10
2023-01-23T12:16:32.118Z,0.10
2023-01-23T12:19:18.685Z,0.10
2023-01-23T12:22:05.218Z,0.20
2023-01-23T12:24:51.779Z,0.20
2023-01-23T12:27:38.310Z,0.20
2023-01-23T12:30:24.870Z,0.30
2023-01-23T12:33:11.389Z,0.30
2023-01-23T12:35:58.002Z,0.20
2023-01-23T12:38:45.535Z,0.20
2023-01-23T12:41:32.084Z,0.20
2023-01-23T12:44:18.620Z,0.20
2023-01-23T12:47:05.293Z,0.20
2023-01-23T12:49:51.843Z,0.20
2023-01-23T12:52:38.384Z,0.10
2023-01-23T12:55:25.078Z,0.10
2023-01-23T12:58:11.762Z,0.10
2023-01-23T13:00:58.358Z,0.10
2023-01-23T13:03:46.860Z,0.10
2023-01-23T13:06:33.633Z,0.10
2023-01-23T13:09:20.191Z,0.10
2023-01-23T13:12:06.736Z,0.00
2023-01-23T13:15:14.174Z,0.00
2023-01-23T13:17:59.838Z,-0.10
2023-01-23T13:20:46.373Z,-0.20
2023-01-23T13:23:32.943Z,-0.10
2023-01-23T13:26:19.533Z,-0.10
2023-01-23T13:29:07.110Z,-0.10
2023-01-23T13:31:53.723Z,-0.10
2023-01-23T13:34:40.262Z,-0.10
2023-01-23T13:37:26.793Z,0.00
2023-01-23T13:40:13.342Z,0.10
2023-01-23T13:42:59.862Z,0.10
2023-01-23T13:45:46.441Z,0.20
2023-01-23T14:21:41.498Z,0.00
2023-01-23T14:24:28.210Z,0.10
2023-01-23T14:27:16.828Z,0.00
2023-01-23T14:30:06.002Z,0.10
2023-01-23T14:32:52.512Z,0.10
2023-01-23T14:35:39.064Z,0.00
2023-01-23T14:38:25.602Z,0.00
2023-01-23T14:41:12.110Z,0.00
2023-01-23T14:43:58.636Z,0.00
2023-01-23T14:46:45.199Z,0.00
2023-01-23T14:49:31.688Z,0.00
2023-01-23T14:52:18.322Z,0.10
2023-01-23T14:55:32.894Z,0.00
2023-01-23T14:58:11.362Z,0.10
2023-01-23T15:00:57.890Z,0.10
2023-01-23T15:03:44.478Z,0.10
2023-01-23T15:06:31.033Z,0.10
2023-01-23T15:09:17.612Z,0.10
2023-01-23T15:12:04.136Z,0.00
2023-01-23T15:14:50.673Z,0.10
2023-01-23T15:17:37.182Z,0.00
2023-01-23T15:20:23.922Z,0.00
2023-01-23T15:23:10.451Z,-0.10
2023-01-23T15:26:04.445Z,-0.10
2023-01-23T15:28:51.798Z,-0.10
2023-01-23T15:31:39.289Z,-0.10
2023-01-23T15:34:25.939Z,-0.10
2023-01-23T15:37:12.503Z,-0.10
2023-01-23T15:39:59.084Z,-0.10
2023-01-23T15:42:45.603Z,-0.10
2023-01-23T15:45:32.119Z,-0.10
2023-01-23T15:48:18.601Z,-0.10
2023-01-23T15:51:05.162Z,-0.10
2023-01-23T15:53:51.724Z,-0.10
2023-01-23T15:56:38.276Z,0.00
2023-01-23T15:59:24.802Z,0.00
2023-01-23T16:02:29.218Z,0.00
2023-01-23T16:05:16.451Z,0.10
2023-01-23T16:08:02.989Z,0.10
2023-01-23T16:10:49.522Z,0.10
2023-01-23T16:13:36.048Z,0.10
2023-01-23T16:16:22.648Z,0.10
2023-01-23T16:19:09.162Z,0.10
2023-01-23T16:22:04.163Z,0.10
2023-01-23T16:24:51.465Z,0.00
2023-01-23T16:27:38.020Z,0.10
2023-01-23T16:30:24.539Z,0.10
2023-01-23T16:33:11.178Z,0.10
2023-01-23T16:35:57.704Z,0.20
2023-01-23T16:38:44.329Z,0.20
2023-01-23T16:41:30.805Z,0.10
2023-01-23T16:44:17.306Z,0.20
2023-01-23T16:47:03.836Z,0.20
2023-01-23T16:49:53.264Z,0.20
2023-01-23T16:52:41.446Z,0.20
2023-01-23T16:55:28.095Z,0.10
2023-01-23T16:58:14.626Z,0.10
2023-01-23T17:01:01.280Z,0.10
2023-01-23T17:03:47.835Z,0.10
2023-01-23T17:06:34.602Z,0.10
2023-01-23T17:09:21.112Z,0.10
2023-01-23T17:12:07.711Z,0.10
2023-01-23T17:14:54.247Z,0.10
2023-01-23T17:17:40.783Z,0.10
2023-01-23T17:20:27.313Z,0.10
2023-01-23T17:23:13.862Z,0.20
2023-01-23T17:26:01.742Z,0.20
2023-01-23T17:28:48.427Z,0.10
2023-01-23T17:31:35.079Z,0.10
2023-01-23T17:34:21.717Z,0.10
2023-01-23T17:37:08.229Z,0.10
2023-01-23T17:39:54.779Z,0.10
2023-01-23T17:42:41.301Z,0.10
2023-01-23T17:45:27.895Z,0.10
2023-01-23T17:48:15.978Z,0.20
2023-01-23T17:51:02.499Z,0.10
2023-01-23T17:53:49.029Z,0.10
2023-01-23T17:56:35.605Z,0.10
2023-01-23T17:59:22.173Z,0.10
2023-01-23T18:02:08.732Z,0.10
2023-01-23T18:04:55.256Z,0.20
2023-01-23T18:07:53.007Z,0.20
2023-01-23T18:10:40.470Z,0.10
2023-01-23T18:13:27.059Z,0.20
2023-01-23T18:16:13.669Z,0.20
2023-01-23T18:19:00.217Z,0.20
2023-01-23T18:21:46.756Z,0.30
2023-01-23T18:24:33.342Z,0.30
2023-01-23T18:27:19.933Z,0.30
2023-01-23T18:30:06.466Z,0.40
2023-01-23T18:32:52.951Z,0.40
2023-01-23T18:35:39.492Z,0.40
2023-01-23T18:38:26.058Z,0.40
2023-01-23T18:41:12.574Z,0.40
2023-01-23T18:43:59.129Z,0.40
2023-01-23T18:46:45.682Z,0.40
2023-01-23T18:49:33.252Z,0.50
2023-01-23T18:52:19.797Z,0.40
2023-01-23T18:55:06.364Z,0.40
2023-01-23T18:57:52.887Z,0.30
2023-01-23T19:00:39.474Z,0.30
2023-01-23T19:03:26.033Z,0.30
2023-01-23T19:06:12.557Z,0.30
2023-01-23T19:08:59.046Z,0.30
2023-01-23T19:11:45.583Z,0.30
2023-01-23T19:14:32.089Z,0.30
2023-01-23T19:17:18.766Z,0.30
2023-01-23T19:20:05.310Z,0.40
2023-01-23T19:22:51.854Z,0.40
2023-01-23T19:25:38.382Z,0.50
2023-01-23T19:28:24.938Z,0.50
2023-01-23T19:31:11.579Z,0.50
2023-01-23T19:33:58.185Z,0.60
2023-01-23T19:36:44.665Z,0.60
2023-01-23T19:39:31.232Z,0.60
2023-01-23T19:42:17.782Z,0.50
2023-01-23T19:45:04.316Z,0.50
2023-01-23T19:47:50.848Z,0.40
2023-01-23T19:50:37.388Z,0.40
2023-01-23T19:53:23.952Z,0.50
2023-01-23T19:56:10.563Z,0.40
2023-01-23T19:58:57.101Z,0.40
2023-01-23T20:01:43.763Z,0.40
2023-01-23T20:04:30.348Z,0.40
2023-01-23T20:07:16.874Z,0.40
2023-01-23T20:10:03.425Z,0.40
2023-01-23T20:12:49.947Z,0.40
2023-01-23T20:15:36.494Z,0.40
2023-01-23T20:18:23.014Z,0.30
2023-01-23T20:21:09.598Z,0.30
2023-01-23T20:23:56.217Z,0.30
2023-01-23T20:26:42.775Z,0.40
2023-01-23T20:29:29.335Z,0.30
2023-01-23T20:32:15.945Z,0.30
2023-01-23T20:35:02.493Z,0.30
2023-01-23T20:37:49.007Z,0.30
2023-01-23T20:40:35.559Z,0.30
2023-01-23T20:43:22.075Z,0.40
2023-01-23T20:46:08.668Z,0.40
2023-01-23T20:48:55.225Z,0.40
2023-01-23T20:51:41.723Z,0.40
2023-01-23T20:54:28.223Z,0.40
2023-01-23T20:57:15.983Z,0.40
2023-01-23T21:00:02.535Z,0.40
2023-01-23T21:02:49.097Z,0.40
2023-01-23T21:05:35.847Z,0.40
2023-01-23T21:08:22.394Z,0.40
2023-01-23T21:11:08.911Z,0.40
2023-01-23T21:13:55.464Z,0.40
2023-01-23T21:16:41.976Z,0.40
2023-01-23T21:19:28.534Z,0.50
2023-01-23T21:22:15.061Z,0.50
2023-01-23T21:25:01.612Z,0.50
2023-01-23T21:27:48.142Z,0.50
2023-01-23T21:30:34.750Z,0.60
2023-01-23T21:33:21.309Z,0.60
2023-01-23T21:36:07.878Z,0.60
2023-01-23T21:38:54.402Z,0.50
2023-01-23T21:41:40.897Z,0.50
2023-01-23T21:44:27.405Z,0.50
2023-01-23T21:47:13.928Z,0.60
2023-01-23T21:50:00.466Z,0.70
2023-01-23T21:52:47.057Z,0.70
2023-01-23T21:55:33.602Z,0.80
2023-01-23T21:58:20.117Z,0.80
2023-01-23T22:01:06.732Z,0.80
2023-01-23T22:03:53.288Z,0.80
2023-01-23T22:06:39.815Z,0.80
2023-01-23T22:09:26.377Z,0.70
2023-01-23T22:12:12.900Z,0.70
2023-01-23T22:14:59.464Z,0.70
2023-01-23T22:17:45.982Z,0.80
2023-01-23T22:20:32.526Z,0.80
2023-01-23T22:23:19.061Z,0.90
2023-01-23T22:26:07.762Z,0.80
2023-01-23T22:28:54.447Z,0.80
2023-01-23T22:31:41.086Z,0.80
2023-01-23T22:34:27.781Z,0.80
2023-01-23T22:37:14.310Z,0.70
2023-01-23T22:40:00.859Z,0.70
2023-01-23T22:42:47.380Z,0.80
2023-01-23T22:45:33.931Z,0.80
2023-01-23T22:48:20.455Z,0.90
2023-01-23T22:51:06.982Z,1.00
2023-01-23T22:53:53.524Z,1.00
2023-01-23T22:56:40.132Z,1.00
2023-01-23T22:59:26.647Z,0.90
2023-01-23T23:02:13.177Z,0.90
2023-01-23T23:04:59.694Z,0.80
2023-01-23T23:07:46.252Z,0.80
2023-01-23T23:10:32.785Z,0.80
2023-01-23T23:13:19.334Z,0.80
2023-01-23T23:16:05.864Z,0.80
2023-01-23T23:18:52.411Z,0.80
2023-01-23T23:21:38.934Z,0.80
2023-01-23T23:24:25.747Z,0.80
2023-01-23T23:27:12.280Z,0.80
2023-01-23T23:29:58.797Z,0.80
2023-01-23T23:32:45.309Z,0.80
2023-01-23T23:35:31.862Z,0.80
2023-01-23T23:38:18.377Z,0.80
2023-01-23T23:41:04.929Z,0.80
2023-01-23T23:43:51.411Z,0.80
2023-01-23T23:46:37.950Z,0.80
2023-01-23T23:49:24.518Z,0.80
2023-01-23T23:52:10.999Z,0.80
2023-01-23T23:54:58.565Z,0.80
2023-01-23T23:57:45.081Z,0.80
